createdAt,value
2018-02-06T00:00:49.524Z,18.05
2018-02-06T00:03:23.228Z,15.45
2018-02-06T00:05:56.844Z,19.10
2018-02-06T00:08:30.520Z,19.52
2018-02-06T00:11:04.262Z,16.33
2018-02-06T00:13:38.029Z,18.67
2018-02-06T00:16:11.629Z,14.13
2018-02-06T00:18:45.360Z,15.93
2018-02-06T00:21:18.980Z,18.08
2018-02-06T00:23:52.502Z,14.52
2018-02-06T00:26:26.229Z,13.62
2018-02-06T00:28:59.877Z,16.15
2018-02-06T00:31:33.429Z,16.15
2018-02-06T00:34:07.144Z,16.58
2018-02-06T00:36:40.833Z,17.70
2018-02-06T00:39:14.579Z,21.80
2018-02-06T00:41:48.270Z,16.70
2018-02-06T00:44:21.933Z,14.70
2018-02-06T00:46:55.652Z,15.75
2018-02-06T00:49:29.334Z,16.48
2018-02-06T00:52:03.210Z,13.55
2018-02-06T00:54:36.711Z,14.55
2018-02-06T00:57:10.426Z,14.50
2018-02-06T00:59:44.612Z,14.50
2018-02-06T01:02:19.392Z,15.25
2018-02-06T01:04:53.469Z,17.35
2018-02-06T01:07:26.980Z,17.25
2018-02-06T01:10:01.389Z,16.65
2018-02-06T01:12:35.577Z,17.30
2018-02-06T01:15:09.937Z,19.75
2018-02-06T01:17:43.798Z,17.50
2018-02-06T01:20:17.361Z,19.05
2018-02-06T01:22:51.153Z,15.15
2018-02-06T01:25:24.774Z,13.77
2018-02-06T01:27:58.644Z,18.08
2018-02-06T01:30:32.410Z,16.05
2018-02-06T01:33:06.251Z,17.58
2018-02-06T01:35:39.845Z,16.55
2018-02-06T01:38:13.461Z,19.40
2018-02-06T01:40:47.259Z,15.35
2018-02-06T01:43:21.267Z,19.20
2018-02-06T01:45:55.504Z,18.87
2018-02-06T01:48:29.877Z,23.40
2018-02-06T01:51:03.913Z,23.15
2018-02-06T01:53:37.546Z,17.90
2018-02-06T01:56:11.140Z,20.40
2018-02-06T01:58:45.153Z,18.15
2018-02-06T02:01:19.369Z,19.62
2018-02-06T02:03:53.116Z,16.27
2018-02-06T02:06:26.594Z,19.48
2018-02-06T02:09:00.513Z,18.08
2018-02-06T02:11:34.244Z,18.77
2018-02-06T02:14:08.030Z,20.00
2018-02-06T02:16:41.549Z,18.45
2018-02-06T02:19:15.274Z,27.13
2018-02-06T02:21:48.805Z,17.15
2018-02-06T02:24:22.497Z,17.75
2018-02-06T02:26:56.148Z,15.85
2018-02-06T02:29:30.065Z,18.83
2018-02-06T02:32:03.739Z,15.18
2018-02-06T02:34:37.480Z,21.08
2018-02-06T02:37:11.121Z,21.35
2018-02-06T02:39:44.954Z,16.70
2018-02-06T04:40:12.330Z,20.98
2018-02-06T04:42:46.126Z,15.68
2018-02-06T04:45:19.960Z,15.50
2018-02-06T04:47:53.486Z,21.83
2018-02-06T04:50:29.591Z,22.25
2018-02-06T04:53:04.030Z,17.62
2018-02-06T04:55:38.124Z,17.00
2018-02-06T04:58:12.189Z,16.10
2018-02-06T05:00:45.946Z,19.40
2018-02-06T05:03:19.748Z,21.55
2018-02-06T05:05:53.462Z,15.15
2018-02-06T05:08:27.206Z,19.05
2018-02-06T05:11:00.983Z,18.23
2018-02-06T05:13:34.648Z,22.48
2018-02-06T05:16:08.393Z,20.98
2018-02-06T05:18:42.203Z,16.25
2018-02-06T05:21:15.770Z,15.25
2018-02-06T05:23:49.488Z,18.40
2018-02-06T05:26:23.005Z,17.42
2018-02-06T05:28:56.500Z,17.15
2018-02-06T05:31:30.374Z,17.27
2018-02-06T05:34:04.346Z,17.05
2018-02-06T05:36:38.056Z,14.25
2018-02-06T05:39:11.521Z,15.95
2018-02-06T05:41:45.250Z,16.05
2018-02-06T05:44:18.908Z,18.55
2018-02-06T05:46:53.251Z,16.55
2018-02-06T05:49:26.967Z,16.27
2018-02-06T05:52:00.531Z,17.65
2018-02-06T05:54:34.225Z,15.52
2018-02-06T05:57:07.943Z,17.20
2018-02-06T05:59:41.729Z,15.20
2018-02-06T06:02:15.308Z,17.85
2018-02-06T06:04:48.986Z,18.42
2018-02-06T06:07:22.734Z,13.93
2018-02-06T06:09:56.413Z,15.70
2018-02-06T06:12:30.817Z,15.63
2018-02-06T06:15:04.465Z,17.83
2018-02-06T06:17:38.177Z,16.23
2018-02-06T06:20:11.803Z,12.75
2018-02-06T06:22:45.448Z,15.82
2018-02-06T06:25:19.176Z,18.75
2018-02-06T06:27:52.845Z,13.07
2018-02-06T06:30:26.398Z,17.55
2018-02-06T06:33:00.103Z,16.48
2018-02-06T06:35:33.848Z,16.37
2018-02-06T06:38:07.599Z,16.70
2018-02-06T06:40:41.297Z,15.80
2018-02-06T06:43:15.021Z,14.18
2018-02-06T06:45:48.550Z,16.55
2018-02-06T06:48:22.443Z,14.55
2018-02-06T06:50:56.205Z,15.00
2018-02-06T06:53:29.874Z,18.02
2018-02-06T06:56:03.365Z,18.67
2018-02-06T06:58:37.050Z,19.33
2018-02-06T07:01:10.707Z,18.90
2018-02-06T07:03:44.526Z,21.33
2018-02-06T07:06:18.138Z,22.75
2018-02-06T07:08:51.777Z,18.85
2018-02-06T07:11:25.488Z,19.73
2018-02-06T07:13:59.155Z,17.85
2018-02-06T07:16:32.977Z,22.98
2018-02-06T07:19:06.917Z,24.27
2018-02-06T07:21:40.604Z,23.45
2018-02-06T07:24:14.284Z,20.25
2018-02-06T07:26:48.058Z,23.15
2018-02-06T07:29:21.743Z,20.00
2018-02-06T07:31:55.520Z,18.52
2018-02-06T07:34:29.396Z,19.87
2018-02-06T07:37:02.960Z,21.40
2018-02-06T07:39:37.299Z,19.98
2018-02-06T07:42:11.957Z,18.48
2018-02-06T07:44:46.311Z,21.67
2018-02-06T07:47:20.033Z,19.83
2018-02-06T07:49:53.709Z,16.98
2018-02-06T07:52:27.478Z,19.25
2018-02-06T07:55:01.272Z,17.95
2018-02-06T07:57:34.884Z,16.48
2018-02-06T08:00:08.475Z,18.60
2018-02-06T08:02:42.256Z,13.82
2018-02-06T08:05:15.981Z,19.77
2018-02-06T08:07:49.594Z,14.48
2018-02-06T08:10:23.298Z,17.15
2018-02-06T08:12:56.999Z,15.30
2018-02-06T08:15:30.597Z,16.00
2018-02-06T08:18:04.273Z,17.50
2018-02-06T08:20:37.957Z,14.15
2018-02-06T08:23:11.719Z,15.25
2018-02-06T08:25:45.224Z,14.35
2018-02-06T08:28:19.010Z,19.12
2018-02-06T08:30:52.669Z,15.45
2018-02-06T08:33:26.341Z,13.73
2018-02-06T08:36:00.133Z,14.65
2018-02-06T08:38:33.977Z,11.70
2018-02-06T08:41:07.787Z,18.87
2018-02-06T08:43:41.427Z,18.20
2018-02-06T08:46:15.109Z,15.00
2018-02-06T08:48:48.751Z,17.75
2018-02-06T08:51:22.325Z,14.38
2018-02-06T08:53:56.280Z,13.68
2018-02-06T08:56:29.841Z,11.98
2018-02-06T08:59:03.677Z,11.68
2018-02-06T09:01:37.232Z,10.07
2018-02-06T09:04:10.914Z,14.95
2018-02-06T09:06:44.548Z,11.10
2018-02-06T09:09:18.099Z,12.25
2018-02-06T09:11:51.785Z,15.15
2018-02-06T09:14:25.507Z,13.07
2018-02-06T09:16:59.070Z,14.00
2018-02-06T09:19:32.751Z,18.95
2018-02-06T09:22:06.268Z,15.10
2018-02-06T09:24:39.957Z,13.62
2018-02-06T09:27:13.658Z,13.27
2018-02-06T09:29:47.378Z,14.15
2018-02-06T09:32:20.897Z,12.82
2018-02-06T09:34:54.626Z,12.27
2018-02-06T09:37:28.296Z,13.65
2018-02-06T09:40:01.991Z,13.88
2018-02-06T09:42:35.756Z,18.12
2018-02-06T09:45:09.678Z,14.68
2018-02-06T09:47:43.149Z,15.30
2018-02-06T09:50:16.723Z,12.90
2018-02-06T09:52:50.610Z,13.62
2018-02-06T09:55:24.332Z,16.33
2018-02-06T09:57:57.836Z,12.63
2018-02-06T10:00:31.768Z,11.30
2018-02-06T10:03:05.622Z,13.10
2018-02-06T10:05:39.301Z,12.77
2018-02-06T10:08:12.957Z,10.88
2018-02-06T10:10:46.685Z,11.90
2018-02-06T10:13:20.449Z,13.30
2018-02-06T10:15:54.229Z,12.00
2018-02-06T10:18:27.895Z,10.55
2018-02-06T10:21:01.653Z,12.55
2018-02-06T10:23:35.353Z,16.08
2018-02-06T10:26:09.219Z,11.90
2018-02-06T10:28:43.013Z,15.38
2018-02-06T10:31:16.775Z,10.68
2018-02-06T10:33:50.478Z,25.37
2018-02-06T10:36:24.312Z,8.73
2018-02-06T10:38:57.983Z,11.50
2018-02-06T10:41:31.481Z,10.87
2018-02-06T10:44:05.039Z,10.80
2018-02-06T10:46:38.978Z,8.20
2018-02-06T10:49:12.450Z,8.50
2018-02-06T10:51:46.195Z,9.65
2018-02-06T10:54:19.954Z,8.67
2018-02-06T10:56:53.796Z,8.37
2018-02-06T10:59:28.196Z,8.20
2018-02-06T11:02:01.750Z,7.70
2018-02-06T11:04:35.437Z,8.17
2018-02-06T11:07:09.313Z,8.50
2018-02-06T11:09:42.949Z,8.13
2018-02-06T11:12:16.664Z,9.30
2018-02-06T11:14:50.301Z,9.00
2018-02-06T11:17:24.982Z,6.63
2018-02-06T11:19:58.630Z,7.60
2018-02-06T11:22:32.123Z,8.50
2018-02-06T11:25:05.705Z,10.40
2018-02-06T11:27:39.445Z,10.37
2018-02-06T11:30:13.189Z,7.60
2018-02-06T11:32:46.937Z,6.33
2018-02-06T11:35:20.814Z,8.83
2018-02-06T11:37:54.399Z,7.03
2018-02-06T11:40:28.608Z,14.80
2018-02-06T11:43:02.572Z,11.37
2018-02-06T11:45:36.361Z,8.43
2018-02-06T11:48:09.931Z,6.40
2018-02-06T11:50:43.472Z,7.33
2018-02-06T11:53:17.313Z,9.70
2018-02-06T11:55:50.968Z,8.02
2018-02-06T11:58:24.605Z,11.00
2018-02-06T12:00:58.128Z,10.98
2018-02-06T12:03:32.028Z,7.20
2018-02-06T12:06:05.564Z,8.60
2018-02-06T12:08:39.277Z,7.05
2018-02-06T12:11:13.067Z,12.18
2018-02-06T12:13:46.865Z,6.40
2018-02-06T12:16:20.508Z,5.40
2018-02-06T12:18:54.221Z,8.50
2018-02-06T12:21:27.964Z,7.78
2018-02-06T12:24:02.414Z,9.40
2018-02-06T12:26:36.147Z,5.53
2018-02-06T12:29:10.530Z,7.30
2018-02-06T12:31:44.624Z,7.30
2018-02-06T12:34:18.461Z,10.07
2018-02-06T12:36:51.986Z,8.13
2018-02-06T12:39:25.651Z,7.35
2018-02-06T12:41:59.443Z,10.02
2018-02-06T12:44:33.093Z,9.48
2018-02-06T12:47:06.756Z,8.52
2018-02-06T12:49:40.596Z,9.18
2018-02-06T12:52:14.174Z,7.68
2018-02-06T12:54:48.016Z,8.67
2018-02-06T12:57:21.739Z,6.53
2018-02-06T12:59:55.572Z,7.53
2018-02-06T13:02:29.131Z,6.93
2018-02-06T13:05:02.751Z,9.40
2018-02-06T13:07:36.381Z,7.10
2018-02-06T13:10:10.208Z,9.15
2018-02-06T13:12:43.806Z,7.85
2018-02-06T13:15:17.745Z,8.00
2018-02-06T13:17:51.477Z,10.43
2018-02-06T13:20:25.216Z,8.27
2018-02-06T13:22:59.164Z,8.50
2018-02-06T13:25:32.840Z,11.18
2018-02-06T13:28:06.480Z,7.65
2018-02-06T13:30:40.216Z,9.70
2018-02-06T13:33:13.968Z,8.00
2018-02-06T13:35:47.871Z,10.53
2018-02-06T13:38:21.521Z,8.25
2018-02-06T13:40:55.256Z,7.28
2018-02-06T13:43:28.956Z,8.45
2018-02-06T13:46:02.527Z,8.33
2018-02-06T13:48:36.089Z,7.87
2018-02-06T13:51:09.703Z,8.10
2018-02-06T13:53:43.314Z,10.87
2018-02-06T13:56:17.100Z,8.30
2018-02-06T13:58:50.760Z,11.70
2018-02-06T14:01:24.432Z,8.43
2018-02-06T14:03:58.012Z,8.40
2018-02-06T14:06:31.900Z,12.23
2018-02-06T14:09:05.637Z,7.57
2018-02-06T14:11:39.430Z,10.83
2018-02-06T14:14:12.864Z,7.70
2018-02-06T14:16:46.724Z,7.63
2018-02-06T14:19:20.389Z,6.30
2018-02-06T14:21:54.143Z,10.00
2018-02-06T14:24:28.672Z,16.20
2018-02-06T14:27:02.687Z,27.83
2018-02-06T14:29:36.497Z,35.37
2018-02-06T14:32:11.112Z,11.30
2018-02-06T14:34:45.088Z,8.80
2018-02-06T14:37:20.531Z,8.23
2018-02-06T14:39:54.566Z,15.63
2018-02-06T14:42:28.189Z,20.07
2018-02-06T14:45:01.873Z,11.80
2018-02-06T14:47:35.589Z,8.65
2018-02-06T14:50:09.425Z,9.55
2018-02-06T14:52:43.134Z,10.68
2018-02-06T14:55:16.856Z,9.60
2018-02-06T14:57:50.577Z,14.45
2018-02-06T15:00:24.272Z,10.23
2018-02-06T15:02:57.966Z,16.60
2018-02-06T15:05:31.648Z,33.85
2018-02-06T15:08:05.405Z,28.75
2018-02-06T15:10:39.149Z,13.02
2018-02-06T15:13:12.856Z,22.05
2018-02-06T15:15:46.429Z,12.80
2018-02-06T15:18:20.074Z,8.30
2018-02-06T15:20:53.784Z,11.50
2018-02-06T15:23:27.833Z,10.38
2018-02-06T15:26:01.528Z,6.97
2018-02-06T15:28:35.195Z,8.15
2018-02-06T15:31:08.841Z,7.37
2018-02-06T15:33:42.581Z,9.57
2018-02-06T15:36:16.226Z,7.62
2018-02-06T15:38:50.121Z,7.72
2018-02-06T15:41:23.589Z,9.15
2018-02-06T15:43:57.274Z,8.38
2018-02-06T15:46:30.914Z,9.13
2018-02-06T15:49:04.660Z,8.50
2018-02-06T15:51:38.488Z,8.80
2018-02-06T15:54:12.253Z,8.82
2018-02-06T15:56:45.912Z,16.83
2018-02-06T15:59:19.490Z,10.60
2018-02-06T16:01:53.181Z,12.35
2018-02-06T16:04:26.767Z,13.65
2018-02-06T16:07:00.412Z,15.85
2018-02-06T16:09:34.123Z,20.35
2018-02-06T16:12:07.810Z,24.85
2018-02-06T16:14:41.514Z,26.70
2018-02-06T16:17:15.021Z,11.50
2018-02-06T16:19:48.757Z,38.03
2018-02-06T16:22:22.473Z,11.20
2018-02-06T16:24:56.147Z,47.65
2018-02-06T16:27:29.773Z,13.25
2018-02-06T16:30:03.769Z,11.65
2018-02-06T16:32:37.268Z,10.45
2018-02-06T16:35:11.106Z,9.73
2018-02-06T16:37:44.831Z,11.38
2018-02-06T16:40:18.590Z,12.45
2018-02-06T16:42:52.108Z,10.35
2018-02-06T16:45:25.807Z,12.07
2018-02-06T16:47:59.650Z,9.93
2018-02-06T16:50:33.424Z,13.77
2018-02-06T16:53:07.180Z,12.60
2018-02-06T16:55:40.936Z,13.43
2018-02-06T16:58:14.487Z,18.45
2018-02-06T17:00:48.335Z,12.50
2018-02-06T17:03:22.077Z,11.77
2018-02-06T17:05:56.695Z,13.07
2018-02-06T17:08:30.581Z,16.95
2018-02-06T17:11:04.332Z,14.40
2018-02-06T17:13:38.021Z,13.18
2018-02-06T17:16:11.611Z,12.25
2018-02-06T17:18:45.067Z,14.00
2018-02-06T17:21:18.826Z,19.65
2018-02-06T17:23:52.517Z,13.90
2018-02-06T17:26:26.240Z,11.52
2018-02-06T17:28:59.828Z,16.65
2018-02-06T17:31:33.403Z,16.02
2018-02-06T17:34:07.334Z,13.73
2018-02-06T17:36:41.125Z,12.63
2018-02-06T17:39:14.850Z,14.25
2018-02-06T17:41:48.414Z,12.68
2018-02-06T17:44:22.077Z,14.63
2018-02-06T17:46:55.781Z,16.40
2018-02-06T17:49:29.654Z,13.95
2018-02-06T17:52:03.553Z,17.05
2018-02-06T17:54:37.128Z,13.52
2018-02-06T17:57:11.138Z,20.20
2018-02-06T17:59:44.715Z,31.87
2018-02-06T18:02:18.340Z,38.08
2018-02-06T18:04:51.921Z,41.80
2018-02-06T18:07:25.449Z,49.65
2018-02-06T18:09:59.333Z,95.97
2018-02-06T18:12:33.170Z,27.48
2018-02-06T18:15:06.918Z,25.25
2018-02-06T18:17:41.025Z,25.35
2018-02-06T18:20:15.288Z,31.67
2018-02-06T18:22:49.287Z,29.40
2018-02-06T18:25:23.594Z,28.17
2018-02-06T18:27:57.279Z,38.15
2018-02-06T18:30:31.173Z,45.50
2018-02-06T18:33:04.828Z,56.00
2018-02-06T18:35:38.529Z,55.12
2018-02-06T18:38:12.157Z,35.85
2018-02-06T18:40:45.818Z,38.90
2018-02-06T18:43:19.798Z,20.95
2018-02-06T18:45:53.467Z,19.27
2018-02-06T18:48:27.365Z,19.20
2018-02-06T18:51:01.102Z,17.65
2018-02-06T18:53:34.773Z,16.75
2018-02-06T18:56:08.615Z,21.73
2018-02-06T18:58:42.397Z,13.52
2018-02-06T19:01:16.031Z,14.30
2018-02-06T19:03:50.505Z,15.93
2018-02-06T19:06:24.729Z,18.70
2018-02-06T19:08:58.297Z,15.05
2018-02-06T19:11:32.049Z,13.75
2018-02-06T19:14:05.674Z,17.05
2018-02-06T19:16:39.409Z,16.80
2018-02-06T19:19:13.310Z,15.07
2018-02-06T19:21:46.861Z,13.25
2018-02-06T19:24:20.914Z,11.90
2018-02-06T19:26:54.425Z,14.27
2018-02-06T19:29:28.229Z,17.42
2018-02-06T19:32:01.872Z,17.42
2018-02-06T19:34:35.442Z,20.05
2018-02-06T19:37:09.235Z,17.25
2018-02-06T19:39:43.082Z,16.52
2018-02-06T19:42:16.892Z,16.12
2018-02-06T19:44:50.486Z,18.40
2018-02-06T19:47:24.569Z,16.25
2018-02-06T19:49:58.017Z,17.58
2018-02-06T19:52:32.032Z,18.98
2018-02-06T19:55:05.548Z,24.52
2018-02-06T19:57:39.380Z,21.15
2018-02-06T20:00:13.146Z,25.55
2018-02-06T20:02:46.795Z,19.35
2018-02-06T20:05:20.424Z,21.98
2018-02-06T20:07:54.116Z,18.15
2018-02-06T20:10:28.425Z,17.55
2018-02-06T20:13:02.599Z,15.48
2018-02-06T20:15:36.328Z,15.55
2018-02-06T20:18:10.050Z,17.00
2018-02-06T20:20:44.286Z,66.18
2018-02-06T20:23:18.567Z,108.65
2018-02-06T20:25:52.189Z,27.48
2018-02-06T20:28:26.172Z,24.83
2018-02-06T20:30:59.798Z,20.35
2018-02-06T20:33:33.597Z,21.50
2018-02-06T20:36:07.393Z,21.17
2018-02-06T20:38:41.029Z,19.98
2018-02-06T20:41:14.820Z,23.58
2018-02-06T20:43:48.636Z,18.05
2018-02-06T20:46:22.381Z,18.58
2018-02-06T20:48:55.961Z,18.02
2018-02-06T20:51:29.858Z,21.10
2018-02-06T20:54:03.874Z,19.67
2018-02-06T20:56:37.413Z,18.85
2018-02-06T20:59:11.064Z,17.80
2018-02-06T21:01:45.270Z,19.65
2018-02-06T21:04:19.438Z,18.48
2018-02-06T21:06:53.379Z,21.00
2018-02-06T21:09:27.197Z,32.00
2018-02-06T21:12:00.916Z,27.17
2018-02-06T21:14:34.661Z,22.40
2018-02-06T21:17:08.542Z,22.35
2018-02-06T21:19:42.154Z,25.75
2018-02-06T21:22:15.832Z,19.77
2018-02-06T21:24:49.619Z,17.12
2018-02-06T21:27:23.701Z,18.60
2018-02-06T21:29:57.166Z,17.42
2018-02-06T21:32:30.777Z,18.87
2018-02-06T21:35:05.080Z,17.25
2018-02-06T21:37:39.322Z,16.95
2018-02-06T21:40:13.133Z,20.70
2018-02-06T21:42:46.629Z,18.98
2018-02-06T21:45:20.539Z,18.55
2018-02-06T21:47:54.225Z,18.50
2018-02-06T21:50:28.156Z,23.70
2018-02-06T21:53:01.675Z,19.85
2018-02-06T21:55:35.332Z,18.00
2018-02-06T21:58:09.076Z,18.70
2018-02-06T22:00:43.068Z,18.08
2018-02-06T22:03:16.513Z,18.42
2018-02-06T22:05:51.001Z,20.70
2018-02-06T22:08:25.034Z,19.60
2018-02-06T22:10:58.509Z,21.83
2018-02-06T22:13:32.321Z,18.80
2018-02-06T22:16:05.748Z,16.87
2018-02-06T22:18:39.721Z,19.10
2018-02-06T22:21:13.629Z,17.37
2018-02-06T22:23:47.324Z,20.23
2018-02-06T22:26:21.144Z,20.05
2018-02-06T22:28:54.824Z,21.25
2018-02-06T22:31:28.447Z,18.12
2018-02-06T22:34:02.356Z,20.08
2018-02-06T22:36:36.155Z,18.62
2018-02-06T22:39:11.115Z,24.45
2018-02-06T22:41:44.977Z,20.90
2018-02-06T22:44:18.882Z,15.85
2018-02-06T22:46:52.530Z,18.67
2018-02-06T22:49:26.516Z,20.30
2018-02-06T22:51:59.957Z,17.23
2018-02-06T22:54:33.932Z,20.20
2018-02-06T22:57:07.530Z,19.52
2018-02-06T22:59:41.436Z,19.62
2018-02-06T23:02:15.233Z,17.48
2018-02-06T23:04:49.014Z,19.55
2018-02-06T23:07:22.942Z,15.10
2018-02-06T23:09:56.604Z,16.60
2018-02-06T23:12:30.459Z,14.10
2018-02-06T23:15:04.485Z,19.60
2018-02-06T23:17:38.105Z,21.12
2018-02-06T23:20:12.092Z,15.45
2018-02-06T23:22:45.996Z,17.75
2018-02-06T23:25:19.585Z,15.27
2018-02-06T23:27:53.209Z,18.23
2018-02-06T23:30:27.089Z,20.10
2018-02-06T23:33:00.819Z,18.55
2018-02-06T23:35:34.735Z,14.00
2018-02-06T23:38:08.621Z,19.00
2018-02-06T23:40:42.561Z,16.80
2018-02-06T23:43:16.112Z,16.83
2018-02-06T23:45:49.928Z,19.08
2018-02-06T23:48:23.830Z,17.00
2018-02-06T23:50:58.286Z,14.43
2018-02-06T23:53:32.453Z,14.45
2018-02-06T23:56:06.678Z,21.02
2018-02-06T23:58:40.848Z,19.67
